createdAt,value
2018-12-30T09:23:08.084Z,1.20
2018-12-30T09:25:36.489Z,1.65
2018-12-30T09:28:04.913Z,1.10
2018-12-30T09:30:33.400Z,1.40
2018-12-30T09:33:01.817Z,1.27
2018-12-30T09:35:30.229Z,1.55
2018-12-30T09:37:59.073Z,1.10
2018-12-30T09:40:27.486Z,1.50
2018-12-30T09:42:55.895Z,1.10
2018-12-30T09:45:25.539Z,1.10
2018-12-30T09:47:53.945Z,1.60
2018-12-30T09:50:22.365Z,0.90
2018-12-30T09:52:50.982Z,1.50
2018-12-30T09:55:19.400Z,1.30
2018-12-30T09:57:47.824Z,1.22
2018-12-30T10:00:16.631Z,1.42
2018-12-30T10:02:45.048Z,1.10
2018-12-30T10:05:13.529Z,1.30
2018-12-30T10:07:42.944Z,1.22
2018-12-30T10:10:11.361Z,1.50
2018-12-30T10:12:39.870Z,1.00
2018-12-30T10:15:10.019Z,1.10
2018-12-30T10:17:38.602Z,1.05
2018-12-30T10:20:07.855Z,0.90
2018-12-30T10:22:36.580Z,1.17
2018-12-30T10:25:05.933Z,1.40
2018-12-30T10:27:35.918Z,1.10
2018-12-30T10:30:07.222Z,1.00
2018-12-30T10:32:35.651Z,1.00
2018-12-30T10:35:04.441Z,1.45
2018-12-30T10:37:33.177Z,1.15
2018-12-30T10:40:01.603Z,1.70
2018-12-30T10:42:30.028Z,1.00
2018-12-30T10:44:58.620Z,1.27
2018-12-30T10:47:27.031Z,1.60
2018-12-30T10:49:55.450Z,1.10
2018-12-30T10:52:24.682Z,1.00
2018-12-30T10:54:53.097Z,0.95
2018-12-30T10:57:21.509Z,1.12
2018-12-30T10:59:50.226Z,1.07
2018-12-30T11:02:18.705Z,1.10
2018-12-30T11:04:47.182Z,1.50
2018-12-30T11:07:15.983Z,1.05
2018-12-30T11:09:44.394Z,1.70
2018-12-30T11:12:12.951Z,1.42
2018-12-30T11:14:41.654Z,2.20
2018-12-30T11:17:10.079Z,1.42
2018-12-30T11:19:38.491Z,1.90
2018-12-30T11:22:07.174Z,2.50
2018-12-30T11:24:35.733Z,2.15
2018-12-30T11:27:04.535Z,2.52
2018-12-30T11:29:34.203Z,2.08
2018-12-30T11:32:02.842Z,2.85
2018-12-30T11:34:31.250Z,2.75
2018-12-30T11:37:00.943Z,6.45
2018-12-30T11:39:29.364Z,10.80
2018-12-30T11:41:57.786Z,11.73
2018-12-30T11:44:26.989Z,12.90
2018-12-30T11:46:55.409Z,15.45
2018-12-30T11:49:23.848Z,12.75
2018-12-30T11:51:52.632Z,15.40
2018-12-30T11:54:21.061Z,11.70
2018-12-30T11:56:49.475Z,14.40
2018-12-30T11:59:19.333Z,11.57
2018-12-30T12:01:47.762Z,15.15
2018-12-30T12:04:16.179Z,11.95
2018-12-30T12:06:45.390Z,11.22
2018-12-30T12:09:13.842Z,14.15
2018-12-30T12:11:42.268Z,10.63
2018-12-30T12:14:10.922Z,11.45
2018-12-30T12:16:39.337Z,10.65
2018-12-30T12:19:07.763Z,14.10
2018-12-30T12:21:36.469Z,12.30
2018-12-30T12:24:04.975Z,14.43
2018-12-30T12:26:34.190Z,11.30
2018-12-30T12:29:03.564Z,11.43
2018-12-30T12:31:31.998Z,10.80
2018-12-30T12:34:00.415Z,11.45
2018-12-30T12:36:28.907Z,10.38
2018-12-30T12:38:57.330Z,10.53
2018-12-30T12:41:25.753Z,10.95
2018-12-30T12:43:54.667Z,10.32
2018-12-30T12:46:23.095Z,10.10
2018-12-30T12:48:51.524Z,9.90
2018-12-30T12:51:21.338Z,9.98
2018-12-30T12:53:49.769Z,8.58
2018-12-30T12:56:18.174Z,8.70
2018-12-30T12:58:46.645Z,31.10
2018-12-30T13:01:15.138Z,19.75
2018-12-30T13:03:43.551Z,20.05
2018-12-30T13:06:12.526Z,19.25
2018-12-30T13:08:40.949Z,17.27
2018-12-30T13:11:09.366Z,18.37
2018-12-30T13:13:38.883Z,15.45
2018-12-30T13:16:07.327Z,17.00
2018-12-30T13:18:35.743Z,16.23
2018-12-30T13:21:04.244Z,18.60
2018-12-30T13:23:32.653Z,15.72
2018-12-30T13:26:01.082Z,15.13
2018-12-30T13:28:35.474Z,17.95
2018-12-30T13:31:03.985Z,14.70
2018-12-30T13:33:32.455Z,14.30
2018-12-30T13:36:01.414Z,12.95
2018-12-30T13:38:29.826Z,14.28
2018-12-30T13:40:58.252Z,13.78
2018-12-30T13:43:26.930Z,12.85
2018-12-30T13:45:55.381Z,14.05
2018-12-30T13:48:23.798Z,13.25
2018-12-30T13:50:52.276Z,12.63
2018-12-30T13:53:20.714Z,11.43
2018-12-30T13:55:49.146Z,11.65
2018-12-30T13:58:18.525Z,10.98
2018-12-30T14:00:46.974Z,10.32
2018-12-30T14:03:15.462Z,11.30
2018-12-30T14:05:44.329Z,10.68
2018-12-30T14:08:12.752Z,10.88
2018-12-30T14:10:41.162Z,9.75
2018-12-30T14:13:09.803Z,10.38
2018-12-30T14:15:38.293Z,9.98
2018-12-30T14:18:06.709Z,9.03
2018-12-30T14:20:35.686Z,10.20
2018-12-30T14:23:04.109Z,10.40
2018-12-30T14:25:32.546Z,10.00
2018-12-30T14:28:01.326Z,9.15
2018-12-30T14:30:30.869Z,8.65
2018-12-30T14:32:59.303Z,10.32
2018-12-30T14:35:28.133Z,8.58
2018-12-30T14:37:56.547Z,10.68
2018-12-30T14:40:24.982Z,8.58
2018-12-30T14:42:54.578Z,7.90
2018-12-30T14:45:23.008Z,9.30
2018-12-30T14:47:51.436Z,9.03
2018-12-30T14:50:20.117Z,7.97
2018-12-30T14:52:48.530Z,8.00
2018-12-30T14:55:16.953Z,10.28
2018-12-30T14:57:45.506Z,8.55
2018-12-30T15:00:14.005Z,7.80
2018-12-30T15:02:42.420Z,9.13
2018-12-30T15:05:11.535Z,7.55
2018-12-30T15:07:39.953Z,7.15
2018-12-30T15:10:08.361Z,8.98
2018-12-30T15:12:39.795Z,7.28
2018-12-30T15:15:09.450Z,9.45
2018-12-30T15:17:37.904Z,6.75
2018-12-30T15:20:10.612Z,9.63
2018-12-30T15:22:39.041Z,7.20
2018-12-30T15:25:11.642Z,8.90
2018-12-30T15:27:39.471Z,7.55
2018-12-30T15:30:09.031Z,6.92
2018-12-30T15:32:37.457Z,7.03
2018-12-30T15:35:07.033Z,8.75
2018-12-30T15:37:35.460Z,7.33
2018-12-30T15:40:05.016Z,8.50
2018-12-30T15:42:34.114Z,7.45
2018-12-30T15:45:02.537Z,6.97
2018-12-30T15:47:30.951Z,6.60
2018-12-30T15:50:00.502Z,6.97
2018-12-30T15:52:28.917Z,7.10
2018-12-30T15:54:57.397Z,5.90
2018-12-30T15:57:26.149Z,5.87
2018-12-30T15:59:54.566Z,7.20
2018-12-30T16:02:22.977Z,6.55
2018-12-30T16:04:51.991Z,8.03
2018-12-30T16:07:20.410Z,7.03
2018-12-30T16:09:48.920Z,5.80
2018-12-30T16:12:18.650Z,6.80
2018-12-30T16:14:47.086Z,6.85
2018-12-30T16:17:15.504Z,6.15
2018-12-30T16:19:44.020Z,6.35
2018-12-30T16:22:12.433Z,6.40
2018-12-30T16:24:40.840Z,6.35
2018-12-30T16:27:09.337Z,6.83
2018-12-30T16:29:41.827Z,7.75
2018-12-30T16:32:10.268Z,6.72
2018-12-30T16:34:39.387Z,5.67
2018-12-30T16:37:07.801Z,5.85
2018-12-30T16:39:36.229Z,6.30
2018-12-30T16:42:05.254Z,6.33
2018-12-30T16:44:33.668Z,5.58
2018-12-30T16:47:02.270Z,6.00
2018-12-30T16:49:30.989Z,5.70
2018-12-30T16:51:59.414Z,6.30
2018-12-30T16:54:27.839Z,7.90
2018-12-30T16:56:57.067Z,6.33
2018-12-30T16:59:25.514Z,6.12
2018-12-30T17:01:54.005Z,7.30
2018-12-30T17:04:22.919Z,6.10
2018-12-30T17:06:51.331Z,6.28
2018-12-30T17:09:19.756Z,5.95
2018-12-30T17:11:48.252Z,5.83
2018-12-30T17:14:18.829Z,6.03
2018-12-30T17:16:47.242Z,5.90
2018-12-30T17:19:15.863Z,5.00
2018-12-30T17:21:44.281Z,5.47
2018-12-30T17:24:12.687Z,5.30
2018-12-30T17:26:43.041Z,5.20
2018-12-30T17:29:11.473Z,4.70
2018-12-30T17:31:40.740Z,4.75
2018-12-30T17:34:09.708Z,4.75
2018-12-30T17:36:38.200Z,5.67
2018-12-30T17:39:06.836Z,5.35
2018-12-30T17:41:36.129Z,5.65
2018-12-30T17:44:04.559Z,6.90
2018-12-30T17:46:32.991Z,8.03
2018-12-30T17:49:01.741Z,8.08
2018-12-30T17:51:30.175Z,8.20
2018-12-30T17:53:58.594Z,6.92
2018-12-30T17:56:27.370Z,8.28
2018-12-30T17:58:55.777Z,7.58
2018-12-30T18:01:24.198Z,8.65
2018-12-30T18:03:53.020Z,8.55
2018-12-30T18:06:21.450Z,8.03
2018-12-30T18:08:49.889Z,8.75
2018-12-30T18:11:18.452Z,8.30
2018-12-30T18:13:46.891Z,8.13
2018-12-30T18:16:15.314Z,7.95
2018-12-30T18:18:43.812Z,8.63
2018-12-30T18:21:12.305Z,8.03
2018-12-30T18:23:40.781Z,8.10
2018-12-30T18:26:10.039Z,7.60
2018-12-30T18:28:38.454Z,8.30
2018-12-30T18:31:08.128Z,7.55
2018-12-30T18:33:39.622Z,7.10
2018-12-30T18:36:08.049Z,8.65
2018-12-30T18:38:36.455Z,7.50
2018-12-30T18:41:05.061Z,6.97
2018-12-30T18:43:33.502Z,7.30
2018-12-30T18:46:01.921Z,7.25
2018-12-30T18:48:31.605Z,8.65
2018-12-30T18:51:00.106Z,6.95
2018-12-30T18:53:28.569Z,7.45
2018-12-30T18:55:57.194Z,7.22
2018-12-30T18:58:25.618Z,6.70
2018-12-30T19:00:54.145Z,6.90
2018-12-30T19:03:23.041Z,8.03
2018-12-30T19:05:51.467Z,7.22
2018-12-30T19:08:19.887Z,6.95
2018-12-30T19:10:48.586Z,6.33
2018-12-30T19:13:17.013Z,6.90
2018-12-30T19:15:45.446Z,8.55
2018-12-30T19:18:14.190Z,7.30
2018-12-30T19:20:42.648Z,8.08
2018-12-30T19:23:13.561Z,6.92
2018-12-30T19:25:42.308Z,6.03
2018-12-30T19:28:10.809Z,6.60
2018-12-30T19:30:39.261Z,6.20
2018-12-30T19:33:08.609Z,6.10
2018-12-30T19:35:38.394Z,6.72
2018-12-30T19:38:06.830Z,7.55
2018-12-30T19:40:35.331Z,6.22
2018-12-30T19:43:03.842Z,7.60
2018-12-30T19:45:32.273Z,6.28
2018-12-30T19:48:01.136Z,6.30
2018-12-30T19:50:29.575Z,6.30
2018-12-30T19:52:57.998Z,6.87
2018-12-30T19:55:26.890Z,5.42
2018-12-30T19:57:55.330Z,5.80
2018-12-30T20:00:23.756Z,6.75
2018-12-30T20:02:52.252Z,7.83
2018-12-30T20:05:20.684Z,6.10
2018-12-30T20:07:49.110Z,7.62
2018-12-30T20:10:17.570Z,5.62
2018-12-30T20:12:45.993Z,6.45
2018-12-30T20:15:14.422Z,5.80
2018-12-30T20:17:43.902Z,6.12
2018-12-30T20:20:12.335Z,6.20
2018-12-30T20:22:40.778Z,6.10
2018-12-30T20:25:09.603Z,6.08
2018-12-30T20:27:38.041Z,6.28
2018-12-30T20:30:08.426Z,6.65
2018-12-30T20:32:37.336Z,6.22
2018-12-30T20:35:05.980Z,6.00
2018-12-30T20:37:35.294Z,6.50
2018-12-30T20:40:05.534Z,6.10
2018-12-30T20:42:33.954Z,6.12
2018-12-30T20:45:02.384Z,5.83
2018-12-30T20:47:31.149Z,5.83
2018-12-30T20:49:59.591Z,6.80
2018-12-30T20:52:28.021Z,6.42
2018-12-30T20:54:56.690Z,6.87
2018-12-30T20:57:25.132Z,6.37
2018-12-30T20:59:53.547Z,6.87
2018-12-30T21:02:22.567Z,6.15
2018-12-30T21:04:51.012Z,6.70
2018-12-30T21:07:19.436Z,6.22
2018-12-30T21:09:48.318Z,6.20
2018-12-30T21:12:16.852Z,7.03
2018-12-30T21:14:45.358Z,6.17
2018-12-30T21:17:14.366Z,6.20
2018-12-30T21:19:42.797Z,5.55
2018-12-30T21:22:12.764Z,6.25
2018-12-30T21:24:41.277Z,7.92
2018-12-30T21:27:11.243Z,6.40
2018-12-30T21:29:39.884Z,7.42
2018-12-30T21:32:09.044Z,6.30
2018-12-30T21:34:37.469Z,6.78
2018-12-30T21:37:05.930Z,5.90
2018-12-30T21:39:34.702Z,5.60
2018-12-30T21:42:03.133Z,7.25
2018-12-30T21:44:31.565Z,5.97
2018-12-30T21:47:00.651Z,6.22
2018-12-30T21:49:29.139Z,5.85
2018-12-30T21:51:57.588Z,5.22
2018-12-30T21:54:27.170Z,5.05
2018-12-30T21:56:55.572Z,5.67
2018-12-30T21:59:23.997Z,5.50
2018-12-30T22:01:52.879Z,6.60
2018-12-30T22:04:21.293Z,6.10
2018-12-30T22:06:49.742Z,6.90
2018-12-30T22:09:18.514Z,5.35
2018-12-30T22:11:46.939Z,5.12
2018-12-30T22:14:15.358Z,5.37
2018-12-30T22:16:44.135Z,4.70
2018-12-30T22:19:12.542Z,5.17
2018-12-30T22:21:40.970Z,5.15
2018-12-30T22:24:09.498Z,4.65
2018-12-30T22:26:37.928Z,4.87
2018-12-30T22:29:06.362Z,5.00
2018-12-30T22:31:35.155Z,4.40
2018-12-30T22:34:09.491Z,5.17
2018-12-30T22:36:38.569Z,4.47
2018-12-30T22:39:07.272Z,4.62
2018-12-30T22:41:35.675Z,4.40
2018-12-30T22:44:04.168Z,4.65
2018-12-30T22:46:32.677Z,4.28
2018-12-30T22:49:01.096Z,4.25
2018-12-30T22:51:29.601Z,3.90
2018-12-30T22:53:58.008Z,4.00
2018-12-30T22:56:26.506Z,5.20
2018-12-30T22:58:55.726Z,3.98
2018-12-30T23:01:24.142Z,4.83
2018-12-30T23:03:52.558Z,4.15
2018-12-30T23:06:21.369Z,5.08
2018-12-30T23:08:49.786Z,4.00
2018-12-30T23:11:18.211Z,3.92
2018-12-30T23:13:47.074Z,5.10
2018-12-30T23:16:15.478Z,3.27
2018-12-30T23:18:43.885Z,3.80
2018-12-30T23:21:13.590Z,3.42
2018-12-30T23:23:42.072Z,3.72
2018-12-30T23:26:10.492Z,4.50
2018-12-30T23:28:39.143Z,4.10
2018-12-30T23:31:07.570Z,3.45
2018-12-30T23:33:35.985Z,4.90
2018-12-30T23:36:07.961Z,3.55
2018-12-30T23:38:36.426Z,4.78
2018-12-30T23:41:05.015Z,3.25
2018-12-30T23:43:33.720Z,4.00
2018-12-30T23:46:02.163Z,3.45
2018-12-30T23:48:30.594Z,3.37
2018-12-30T23:50:59.070Z,3.17
2018-12-30T23:53:27.480Z,3.50
2018-12-30T23:55:55.898Z,3.08
2018-12-30T23:58:24.503Z,4.33
